Pagina principale
METAR-TAF:

METAR-TAF

Aeroporti :

Treviso, Italia

Aeroporto di Treviso-Istrana

latitudine: 45-41N, longitudine: 012-06E, altezza: 45 m

Osservazione

Il bollettino è stato emesso 50 minuti fa, alle 05:55 UTC
Vento calmo
Temperature 18°C
Umidità 83%
Pressione 1004 hPa
Visibilità 10 km o più
Nubi sparse ad un'altezza di 7000 ft

METAR: LIPS 260555Z 00000KT 9999 SCT070 18/15 Q1004 RMK BKN BKN180 VIS MIN 9999 WIND THR26 00000KT WIND THR08 00000KT BLU

Ora: 08:45 (06:45 UTC)

Previsione

Il bollettino è stato emesso 1 ora e 45 minuti fa, alle 05:00 UTC
Previsione valida dal 26 alle 06 UTC al 26 alle 15 UTC
Vento 5 kt da nord-est
Visibilità 10 km o più
nessuna nube inferiore a 1500 m e nessun cumulonembo

TAF: LIPS 260500Z 2606/2615 05005KT CAVOK

Osservazioni e previsioni meteorologiche di più di 4000 aeroporti (messaggi METAR e TAF).

Le stazioni disponibili sono rappresentate dai dischi gialli e rossi sulla carta.

Puntare il mouse per vedere il nome della stazione.

Clicca sopra per visualizzare le osservazioni e previsioni meteorologiche.

Per cambiare la mappa : fare clic sui pulsanti verdi con una croce nera per ingrandire, il pulsante verde con un trattino per diminuire, o sulla freccia verde per le mappe adiacenti.


METAR-TAF: